sensor_id;sensor_type;location;lat;lon;timestamp;temperature;humidity
65199;HTU21D;52170;45.018;37.910;2023-05-16T00:02:19;11.61;76.41
65199;HTU21D;52170;45.018;37.910;2023-05-16T00:04:45;11.56;77.42
65199;HTU21D;52170;45.018;37.910;2023-05-16T00:07:11;11.47;77.35
65199;HTU21D;52170;45.018;37.910;2023-05-16T00:09:37;11.42;78.80
65199;HTU21D;52170;45.018;37.910;2023-05-16T00:12:03;11.37;79.53
65199;HTU21D;52170;45.018;37.910;2023-05-16T00:14:30;11.32;79.53
65199;HTU21D;52170;45.018;37.910;2023-05-16T00:16:56;11.28;79.98
65199;HTU21D;52170;45.018;37.910;2023-05-16T00:19:25;11.26;81.01
65199;HTU21D;52170;45.018;37.910;2023-05-16T00:21:52;11.23;80.48
65199;HTU21D;52170;45.018;37.910;2023-05-16T00:24:18;11.20;79.78
65199;HTU21D;52170;45.018;37.910;2023-05-16T00:26:43;11.19;79.90
65199;HTU21D;52170;45.018;37.910;2023-05-16T00:29:09;11.16;80.03
65199;HTU21D;52170;45.018;37.910;2023-05-16T00:31:35;11.16;80.01
65199;HTU21D;52170;45.018;37.910;2023-05-16T00:34:00;11.14;79.88
65199;HTU21D;52170;45.018;37.910;2023-05-16T00:36:26;11.11;80.11
65199;HTU21D;52170;45.018;37.910;2023-05-16T00:38:53;11.09;79.88
65199;HTU21D;52170;45.018;37.910;2023-05-16T00:41:19;11.07;80.41
65199;HTU21D;52170;45.018;37.910;2023-05-16T00:43:45;11.04;80.52
65199;HTU21D;52170;45.018;37.910;2023-05-16T00:46:11;11.04;80.62
65199;HTU21D;52170;45.018;37.910;2023-05-16T00:48:37;11.01;80.36
65199;HTU21D;52170;45.018;37.910;2023-05-16T00:51:02;11.03;80.15
65199;HTU21D;52170;45.018;37.910;2023-05-16T00:53:28;11.03;79.89
65199;HTU21D;52170;45.018;37.910;2023-05-16T00:55:55;11.04;79.75
65199;HTU21D;52170;45.018;37.910;2023-05-16T00:58:22;11.04;80.11
65199;HTU21D;52170;45.018;37.910;2023-05-16T01:00:50;11.03;80.46
65199;HTU21D;52170;45.018;37.910;2023-05-16T01:03:17;11.00;80.77
65199;HTU21D;52170;45.018;37.910;2023-05-16T01:05:42;10.96;80.84
65199;HTU21D;52170;45.018;37.910;2023-05-16T01:08:08;10.93;81.33
65199;HTU21D;52170;45.018;37.910;2023-05-16T01:10:36;10.90;81.24
65199;HTU21D;52170;45.018;37.910;2023-05-16T01:16:04;10.85;80.78
65199;HTU21D;52170;45.018;37.910;2023-05-16T01:21:05;10.82;80.57
65199;HTU21D;52170;45.018;37.910;2023-05-16T01:28:36;10.75;80.36
65199;HTU21D;52170;45.018;37.910;2023-05-16T01:31:02;10.73;80.06
65199;HTU21D;52170;45.018;37.910;2023-05-16T01:33:28;10.73;79.88
65199;HTU21D;52170;45.018;37.910;2023-05-16T01:38:35;10.77;79.48
65199;HTU21D;52170;45.018;37.910;2023-05-16T01:43:42;10.80;79.17
65199;HTU21D;52170;45.018;37.910;2023-05-16T01:46:21;10.80;79.06
65199;HTU21D;52170;45.018;37.910;2023-05-16T01:48:55;10.79;78.98
65199;HTU21D;52170;45.018;37.910;2023-05-16T01:51:23;10.79;78.92
65199;HTU21D;52170;45.018;37.910;2023-05-16T01:53:51;10.77;78.88
65199;HTU21D;52170;45.018;37.910;2023-05-16T01:56:17;10.75;78.83
65199;HTU21D;52170;45.018;37.910;2023-05-16T01:58:44;10.71;78.80
65199;HTU21D;52170;45.018;37.910;2023-05-16T02:01:11;10.66;78.84
65199;HTU21D;52170;45.018;37.910;2023-05-16T02:03:37;10.59;78.92
65199;HTU21D;52170;45.018;37.910;2023-05-16T02:06:03;10.53;78.93
65199;HTU21D;52170;45.018;37.910;2023-05-16T02:08:29;10.49;78.91
65199;HTU21D;52170;45.018;37.910;2023-05-16T02:10:55;10.44;78.88
65199;HTU21D;52170;45.018;37.910;2023-05-16T02:13:21;10.42;78.81
65199;HTU21D;52170;45.018;37.910;2023-05-16T02:15:47;10.42;78.70
65199;HTU21D;52170;45.018;37.910;2023-05-16T02:18:12;10.43;78.56
65199;HTU21D;52170;45.018;37.910;2023-05-16T02:20:38;10.45;78.46
65199;HTU21D;52170;45.018;37.910;2023-05-16T02:23:04;10.43;78.35
65199;HTU21D;52170;45.018;37.910;2023-05-16T02:25:31;10.39;78.40
65199;HTU21D;52170;45.018;37.910;2023-05-16T02:27:56;10.36;78.45
65199;HTU21D;52170;45.018;37.910;2023-05-16T02:30:22;10.33;78.49
65199;HTU21D;52170;45.018;37.910;2023-05-16T02:32:50;10.30;78.54
65199;HTU21D;52170;45.018;37.910;2023-05-16T02:35:18;10.27;78.48
65199;HTU21D;52170;45.018;37.910;2023-05-16T02:37:43;10.27;78.40
65199;HTU21D;52170;45.018;37.910;2023-05-16T02:40:09;10.29;78.29
65199;HTU21D;52170;45.018;37.910;2023-05-16T02:42:35;10.31;78.35
65199;HTU21D;52170;45.018;37.910;2023-05-16T02:45:05;10.31;78.23
65199;HTU21D;52170;45.018;37.910;2023-05-16T02:47:33;10.37;78.13
65199;HTU21D;52170;45.018;37.910;2023-05-16T02:49:58;10.40;78.03
65199;HTU21D;52170;45.018;37.910;2023-05-16T02:52:25;10.44;78.06
65199;HTU21D;52170;45.018;37.910;2023-05-16T02:54:57;10.49;77.99
65199;HTU21D;52170;45.018;37.910;2023-05-16T02:57:22;10.54;78.26
65199;HTU21D;52170;45.018;37.910;2023-05-16T02:59:48;10.62;78.34
65199;HTU21D;52170;45.018;37.910;2023-05-16T03:02:14;10.68;78.43
65199;HTU21D;52170;45.018;37.910;2023-05-16T03:04:40;10.75;78.37
65199;HTU21D;52170;45.018;37.910;2023-05-16T03:07:05;10.84;78.82
65199;HTU21D;52170;45.018;37.910;2023-05-16T03:09:31;10.90;78.53
65199;HTU21D;52170;45.018;37.910;2023-05-16T03:11:57;10.99;79.49
65199;HTU21D;52170;45.018;37.910;2023-05-16T03:14:26;11.07;79.24
65199;HTU21D;52170;45.018;37.910;2023-05-16T03:16:52;11.15;79.86
65199;HTU21D;52170;45.018;37.910;2023-05-16T03:19:17;11.20;80.11
65199;HTU21D;52170;45.018;37.910;2023-05-16T03:21:43;11.30;80.46
65199;HTU21D;52170;45.018;37.910;2023-05-16T03:24:09;11.38;80.82
65199;HTU21D;52170;45.018;37.910;2023-05-16T03:26:35;11.48;81.06
65199;HTU21D;52170;45.018;37.910;2023-05-16T03:29:01;11.58;80.14
65199;HTU21D;52170;45.018;37.910;2023-05-16T03:31:26;11.69;81.22
65199;HTU21D;52170;45.018;37.910;2023-05-16T03:33:52;11.82;80.45
65199;HTU21D;52170;45.018;37.910;2023-05-16T03:36:20;11.93;80.14
65199;HTU21D;52170;45.018;37.910;2023-05-16T03:38:46;12.07;79.61
65199;HTU21D;52170;45.018;37.910;2023-05-16T03:41:12;12.22;79.86
65199;HTU21D;52170;45.018;37.910;2023-05-16T03:43:37;12.34;79.23
65199;HTU21D;52170;45.018;37.910;2023-05-16T03:46:03;12.45;79.62
65199;HTU21D;52170;45.018;37.910;2023-05-16T03:48:29;12.57;79.72
65199;HTU21D;52170;45.018;37.910;2023-05-16T03:50:54;12.66;79.49
65199;HTU21D;52170;45.018;37.910;2023-05-16T03:53:20;12.79;79.12
65199;HTU21D;52170;45.018;37.910;2023-05-16T03:55:46;12.90;78.70
65199;HTU21D;52170;45.018;37.910;2023-05-16T03:58:11;13.02;78.42
65199;HTU21D;52170;45.018;37.910;2023-05-16T04:00:37;13.11;78.06
65199;HTU21D;52170;45.018;37.910;2023-05-16T04:03:03;13.20;77.94
65199;HTU21D;52170;45.018;37.910;2023-05-16T04:05:29;13.33;77.66
65199;HTU21D;52170;45.018;37.910;2023-05-16T04:07:55;13.45;77.44
65199;HTU21D;52170;45.018;37.910;2023-05-16T04:10:20;13.56;77.19
65199;HTU21D;52170;45.018;37.910;2023-05-16T04:12:46;13.70;76.93
65199;HTU21D;52170;45.018;37.910;2023-05-16T04:15:12;13.82;76.76
65199;HTU21D;52170;45.018;37.910;2023-05-16T04:17:38;13.93;76.61
65199;HTU21D;52170;45.018;37.910;2023-05-16T04:20:05;14.08;76.44
65199;HTU21D;52170;45.018;37.910;2023-05-16T04:22:31;14.23;76.20
65199;HTU21D;52170;45.018;37.910;2023-05-16T04:24:57;14.36;75.95
65199;HTU21D;52170;45.018;37.910;2023-05-16T04:27:22;14.43;75.82
65199;HTU21D;52170;45.018;37.910;2023-05-16T04:29:48;14.51;75.72
65199;HTU21D;52170;45.018;37.910;2023-05-16T04:32:14;14.57;75.66
65199;HTU21D;52170;45.018;37.910;2023-05-16T04:34:39;14.68;75.54
65199;HTU21D;52170;45.018;37.910;2023-05-16T04:37:06;14.78;75.39
65199;HTU21D;52170;45.018;37.910;2023-05-16T04:39:33;14.85;75.28
65199;HTU21D;52170;45.018;37.910;2023-05-16T04:41:59;14.97;75.17
65199;HTU21D;52170;45.018;37.910;2023-05-16T04:44:25;15.08;75.02
65199;HTU21D;52170;45.018;37.910;2023-05-16T04:46:51;15.16;74.90
65199;HTU21D;52170;45.018;37.910;2023-05-16T04:49:18;15.18;74.88
65199;HTU21D;52170;45.018;37.910;2023-05-16T04:51:43;15.23;74.88
65199;HTU21D;52170;45.018;37.910;2023-05-16T04:54:09;15.28;74.82
65199;HTU21D;52170;45.018;37.910;2023-05-16T04:56:35;15.37;74.71
65199;HTU21D;52170;45.018;37.910;2023-05-16T04:59:01;15.43;74.57
65199;HTU21D;52170;45.018;37.910;2023-05-16T05:01:28;15.52;74.47
65199;HTU21D;52170;45.018;37.910;2023-05-16T05:03:54;15.61;74.34
65199;HTU21D;52170;45.018;37.910;2023-05-16T05:06:20;15.74;74.16
65199;HTU21D;52170;45.018;37.910;2023-05-16T05:08:45;15.88;74.00
65199;HTU21D;52170;45.018;37.910;2023-05-16T05:11:11;16.03;73.78
65199;HTU21D;52170;45.018;37.910;2023-05-16T05:13:37;16.17;73.58
65199;HTU21D;52170;45.018;37.910;2023-05-16T05:16:03;16.32;73.38
65199;HTU21D;52170;45.018;37.910;2023-05-16T05:18:29;16.46;73.19
65199;HTU21D;52170;45.018;37.910;2023-05-16T05:20:55;16.60;73.03
65199;HTU21D;52170;45.018;37.910;2023-05-16T05:23:21;16.75;72.85
65199;HTU21D;52170;45.018;37.910;2023-05-16T05:25:46;16.91;72.64
65199;HTU21D;52170;45.018;37.910;2023-05-16T05:28:12;17.08;72.42
65199;HTU21D;52170;45.018;37.910;2023-05-16T05:30:38;17.25;72.21
65199;HTU21D;52170;45.018;37.910;2023-05-16T05:33:03;17.44;72.02
65199;HTU21D;52170;45.018;37.910;2023-05-16T05:35:29;17.56;71.89
65199;HTU21D;52170;45.018;37.910;2023-05-16T05:37:55;17.70;71.77
65199;HTU21D;52170;45.018;37.910;2023-05-16T05:40:21;17.81;71.66
65199;HTU21D;52170;45.018;37.910;2023-05-16T05:42:46;17.95;71.45
65199;HTU21D;52170;45.018;37.910;2023-05-16T05:45:13;18.08;71.34
65199;HTU21D;52170;45.018;37.910;2023-05-16T05:47:39;18.25;71.10
65199;HTU21D;52170;45.018;37.910;2023-05-16T05:50:05;18.42;70.91
65199;HTU21D;52170;45.018;37.910;2023-05-16T05:52:31;18.58;70.63
65199;HTU21D;52170;45.018;37.910;2023-05-16T05:54:56;18.76;69.26
65199;HTU21D;52170;45.018;37.910;2023-05-16T05:57:23;18.92;68.04
65199;HTU21D;52170;45.018;37.910;2023-05-16T05:59:49;19.09;68.76
65199;HTU21D;52170;45.018;37.910;2023-05-16T06:02:15;19.24;68.81
65199;HTU21D;52170;45.018;37.910;2023-05-16T06:04:41;19.36;68.84
65199;HTU21D;52170;45.018;37.910;2023-05-16T06:07:07;19.51;68.74
65199;HTU21D;52170;45.018;37.910;2023-05-16T06:09:33;19.65;68.52
65199;HTU21D;52170;45.018;37.910;2023-05-16T06:11:58;19.81;68.23
65199;HTU21D;52170;45.018;37.910;2023-05-16T06:14:24;19.92;68.15
65199;HTU21D;52170;45.018;37.910;2023-05-16T06:16:50;20.03;68.06
65199;HTU21D;52170;45.018;37.910;2023-05-16T06:19:16;20.16;67.84
65199;HTU21D;52170;45.018;37.910;2023-05-16T06:21:42;20.33;67.55
65199;HTU21D;52170;45.018;37.910;2023-05-16T06:24:08;20.49;67.16
65199;HTU21D;52170;45.018;37.910;2023-05-16T06:26:34;20.61;67.11
65199;HTU21D;52170;45.018;37.910;2023-05-16T06:29:00;20.75;66.78
65199;HTU21D;52170;45.018;37.910;2023-05-16T06:31:26;20.88;66.65
65199;HTU21D;52170;45.018;37.910;2023-05-16T06:33:51;20.99;66.67
65199;HTU21D;52170;45.018;37.910;2023-05-16T06:36:17;21.11;66.61
65199;HTU21D;52170;45.018;37.910;2023-05-16T06:38:43;21.21;66.53
65199;HTU21D;52170;45.018;37.910;2023-05-16T06:41:09;21.32;66.40
65199;HTU21D;52170;45.018;37.910;2023-05-16T06:43:35;21.42;64.79
65199;HTU21D;52170;45.018;37.910;2023-05-16T06:46:01;21.51;64.46
65199;HTU21D;52170;45.018;37.910;2023-05-16T06:48:28;21.61;64.18
65199;HTU21D;52170;45.018;37.910;2023-05-16T06:50:54;21.73;64.46
65199;HTU21D;52170;45.018;37.910;2023-05-16T06:53:20;21.82;64.47
65199;HTU21D;52170;45.018;37.910;2023-05-16T06:55:46;21.94;64.46
65199;HTU21D;52170;45.018;37.910;2023-05-16T06:58:11;22.04;64.26
65199;HTU21D;52170;45.018;37.910;2023-05-16T07:00:37;22.17;63.64
65199;HTU21D;52170;45.018;37.910;2023-05-16T07:03:03;22.31;63.89
65199;HTU21D;52170;45.018;37.910;2023-05-16T07:05:29;22.48;63.56
65199;HTU21D;52170;45.018;37.910;2023-05-16T07:07:54;22.61;63.61
65199;HTU21D;52170;45.018;37.910;2023-05-16T07:10:20;22.67;63.15
65199;HTU21D;52170;45.018;37.910;2023-05-16T07:12:46;22.69;63.36
65199;HTU21D;52170;45.018;37.910;2023-05-16T07:15:12;22.80;63.11
65199;HTU21D;52170;45.018;37.910;2023-05-16T07:17:38;22.85;63.11
65199;HTU21D;52170;45.018;37.910;2023-05-16T07:20:06;22.96;63.00
65199;HTU21D;52170;45.018;37.910;2023-05-16T07:22:35;23.07;62.64
65199;HTU21D;52170;45.018;37.910;2023-05-16T07:25:01;23.15;62.15
65199;HTU21D;52170;45.018;37.910;2023-05-16T07:27:27;23.29;62.16
65199;HTU21D;52170;45.018;37.910;2023-05-16T07:29:52;23.42;61.95
65199;HTU21D;52170;45.018;37.910;2023-05-16T07:32:18;23.56;61.66
65199;HTU21D;52170;45.018;37.910;2023-05-16T07:34:44;23.68;61.39
65199;HTU21D;52170;45.018;37.910;2023-05-16T07:37:10;23.80;60.96
65199;HTU21D;52170;45.018;37.910;2023-05-16T07:39:38;23.89;60.36
65199;HTU21D;52170;45.018;37.910;2023-05-16T07:42:05;23.99;59.77
65199;HTU21D;52170;45.018;37.910;2023-05-16T07:44:30;24.03;58.11
65199;HTU21D;52170;45.018;37.910;2023-05-16T07:46:56;24.10;57.58
65199;HTU21D;52170;45.018;37.910;2023-05-16T07:49:22;24.20;58.33
65199;HTU21D;52170;45.018;37.910;2023-05-16T07:51:47;24.34;55.26
65199;HTU21D;52170;45.018;37.910;2023-05-16T07:54:13;24.44;57.26
65199;HTU21D;52170;45.018;37.910;2023-05-16T07:56:39;24.51;57.84
65199;HTU21D;52170;45.018;37.910;2023-05-16T07:59:05;24.57;58.18
65199;HTU21D;52170;45.018;37.910;2023-05-16T08:01:31;24.71;58.08
65199;HTU21D;52170;45.018;37.910;2023-05-16T08:03:57;24.83;57.29
65199;HTU21D;52170;45.018;37.910;2023-05-16T08:06:22;24.94;57.19
65199;HTU21D;52170;45.018;37.910;2023-05-16T08:08:48;24.97;56.36
65199;HTU21D;52170;45.018;37.910;2023-05-16T08:11:14;24.94;56.56
65199;HTU21D;52170;45.018;37.910;2023-05-16T08:13:39;24.99;56.86
65199;HTU21D;52170;45.018;37.910;2023-05-16T08:16:05;25.12;56.33
65199;HTU21D;52170;45.018;37.910;2023-05-16T08:18:31;25.20;54.69
65199;HTU21D;52170;45.018;37.910;2023-05-16T08:20:56;25.33;55.51
65199;HTU21D;52170;45.018;37.910;2023-05-16T08:23:22;25.47;54.88
65199;HTU21D;52170;45.018;37.910;2023-05-16T08:25:48;25.52;55.23
65199;HTU21D;52170;45.018;37.910;2023-05-16T08:28:13;25.61;54.74
65199;HTU21D;52170;45.018;37.910;2023-05-16T08:30:39;25.62;54.39
65199;HTU21D;52170;45.018;37.910;2023-05-16T08:33:05;25.64;54.96
65199;HTU21D;52170;45.018;37.910;2023-05-16T08:35:31;25.69;54.73
65199;HTU21D;52170;45.018;37.910;2023-05-16T08:37:57;25.71;52.07
65199;HTU21D;52170;45.018;37.910;2023-05-16T08:40:24;25.68;52.75
65199;HTU21D;52170;45.018;37.910;2023-05-16T08:42:50;25.69;53.06
65199;HTU21D;52170;45.018;37.910;2023-05-16T08:45:16;25.77;53.60
65199;HTU21D;52170;45.018;37.910;2023-05-16T08:47:42;25.87;51.91
65199;HTU21D;52170;45.018;37.910;2023-05-16T08:50:08;25.94;53.03
65199;HTU21D;52170;45.018;37.910;2023-05-16T08:52:34;26.07;53.10
65199;HTU21D;52170;45.018;37.910;2023-05-16T08:55:02;26.17;52.23
65199;HTU21D;52170;45.018;37.910;2023-05-16T08:57:32;26.22;52.47
65199;HTU21D;52170;45.018;37.910;2023-05-16T08:59:59;26.28;51.87
65199;HTU21D;52170;45.018;37.910;2023-05-16T09:02:26;26.40;51.29
65199;HTU21D;52170;45.018;37.910;2023-05-16T09:04:52;26.54;51.43
65199;HTU21D;52170;45.018;37.910;2023-05-16T09:07:18;26.66;51.51
65199;HTU21D;52170;45.018;37.910;2023-05-16T09:09:44;26.60;50.37
65199;HTU21D;52170;45.018;37.910;2023-05-16T09:12:10;26.62;48.61
65199;HTU21D;52170;45.018;37.910;2023-05-16T09:14:36;26.65;49.85
65199;HTU21D;52170;45.018;37.910;2023-05-16T09:17:06;26.68;50.09
65199;HTU21D;52170;45.018;37.910;2023-05-16T09:19:38;26.71;46.95
65199;HTU21D;52170;45.018;37.910;2023-05-16T09:22:11;26.75;49.53
65199;HTU21D;52170;45.018;37.910;2023-05-16T09:24:38;26.82;49.82
65199;HTU21D;52170;45.018;37.910;2023-05-16T09:27:07;26.83;50.02
65199;HTU21D;52170;45.018;37.910;2023-05-16T09:29:33;26.87;50.10
65199;HTU21D;52170;45.018;37.910;2023-05-16T09:32:12;26.89;50.03
65199;HTU21D;52170;45.018;37.910;2023-05-16T09:34:41;26.93;50.34
65199;HTU21D;52170;45.018;37.910;2023-05-16T09:37:08;27.04;50.10
65199;HTU21D;52170;45.018;37.910;2023-05-16T09:39:34;27.09;50.27
65199;HTU21D;52170;45.018;37.910;2023-05-16T09:41:59;27.14;50.20
65199;HTU21D;52170;45.018;37.910;2023-05-16T09:44:26;27.23;50.14
65199;HTU21D;52170;45.018;37.910;2023-05-16T09:46:53;27.29;49.85
65199;HTU21D;52170;45.018;37.910;2023-05-16T09:49:18;27.35;46.09
65199;HTU21D;52170;45.018;37.910;2023-05-16T09:51:44;27.29;48.40
65199;HTU21D;52170;45.018;37.910;2023-05-16T09:54:10;27.37;48.73
65199;HTU21D;52170;45.018;37.910;2023-05-16T09:56:54;27.44;49.03
65199;HTU21D;52170;45.018;37.910;2023-05-16T09:59:20;27.56;49.04
65199;HTU21D;52170;45.018;37.910;2023-05-16T10:01:46;27.71;48.94
65199;HTU21D;52170;45.018;37.910;2023-05-16T10:04:13;27.83;48.78
65199;HTU21D;52170;45.018;37.910;2023-05-16T10:06:40;27.84;47.63
65199;HTU21D;52170;45.018;37.910;2023-05-16T10:09:09;27.88;48.04
65199;HTU21D;52170;45.018;37.910;2023-05-16T10:11:36;27.97;48.08
65199;HTU21D;52170;45.018;37.910;2023-05-16T10:14:02;28.06;48.16
65199;HTU21D;52170;45.018;37.910;2023-05-16T10:16:28;28.08;47.79
65199;HTU21D;52170;45.018;37.910;2023-05-16T10:18:54;28.12;48.23
65199;HTU21D;52170;45.018;37.910;2023-05-16T10:21:21;28.13;48.39
65199;HTU21D;52170;45.018;37.910;2023-05-16T10:23:47;28.19;48.41
65199;HTU21D;52170;45.018;37.910;2023-05-16T10:26:15;28.27;48.15
65199;HTU21D;52170;45.018;37.910;2023-05-16T10:28:41;28.37;47.74
65199;HTU21D;52170;45.018;37.910;2023-05-16T10:31:07;28.42;47.62
65199;HTU21D;52170;45.018;37.910;2023-05-16T10:33:34;28.39;47.41
65199;HTU21D;52170;45.018;37.910;2023-05-16T10:36:00;28.41;47.66
65199;HTU21D;52170;45.018;37.910;2023-05-16T10:38:26;28.43;47.32
65199;HTU21D;52170;45.018;37.910;2023-05-16T10:40:52;28.40;47.70
65199;HTU21D;52170;45.018;37.910;2023-05-16T10:43:22;28.37;47.31
65199;HTU21D;52170;45.018;37.910;2023-05-16T10:45:52;28.28;46.31
65199;HTU21D;52170;45.018;37.910;2023-05-16T10:48:19;28.31;46.19
65199;HTU21D;52170;45.018;37.910;2023-05-16T10:50:52;28.32;46.47
65199;HTU21D;52170;45.018;37.910;2023-05-16T10:53:22;28.40;46.80
65199;HTU21D;52170;45.018;37.910;2023-05-16T11:06:27;28.44;45.67
65199;HTU21D;52170;45.018;37.910;2023-05-16T11:11:44;28.45;45.91
65199;HTU21D;52170;45.018;37.910;2023-05-16T11:14:53;28.52;46.15
65199;HTU21D;52170;45.018;37.910;2023-05-16T11:17:11;28.52;46.35
65199;HTU21D;52170;45.018;37.910;2023-05-16T11:22:10;28.52;46.12
65199;HTU21D;52170;45.018;37.910;2023-05-16T11:24:37;28.55;45.19
65199;HTU21D;52170;45.018;37.910;2023-05-16T11:27:03;28.54;45.50
65199;HTU21D;52170;45.018;37.910;2023-05-16T11:29:33;28.60;44.29
65199;HTU21D;52170;45.018;37.910;2023-05-16T11:32:00;28.71;44.76
65199;HTU21D;52170;45.018;37.910;2023-05-16T11:34:26;28.75;44.74
65199;HTU21D;52170;45.018;37.910;2023-05-16T11:36:52;28.71;44.90
65199;HTU21D;52170;45.018;37.910;2023-05-16T11:39:17;28.71;44.33
65199;HTU21D;52170;45.018;37.910;2023-05-16T11:41:44;28.72;44.83
65199;HTU21D;52170;45.018;37.910;2023-05-16T11:44:11;28.73;44.51
65199;HTU21D;52170;45.018;37.910;2023-05-16T11:46:38;28.75;43.84
65199;HTU21D;52170;45.018;37.910;2023-05-16T11:49:08;28.72;44.54
65199;HTU21D;52170;45.018;37.910;2023-05-16T11:51:36;28.75;44.30
65199;HTU21D;52170;45.018;37.910;2023-05-16T11:54:02;28.78;44.15
65199;HTU21D;52170;45.018;37.910;2023-05-16T11:56:29;28.75;42.87
65199;HTU21D;52170;45.018;37.910;2023-05-16T11:58:58;28.76;44.01
65199;HTU21D;52170;45.018;37.910;2023-05-16T12:01:24;28.78;43.90
65199;HTU21D;52170;45.018;37.910;2023-05-16T12:03:56;28.77;43.88
65199;HTU21D;52170;45.018;37.910;2023-05-16T12:06:22;28.74;43.69
65199;HTU21D;52170;45.018;37.910;2023-05-16T12:08:51;28.69;44.19
65199;HTU21D;52170;45.018;37.910;2023-05-16T12:11:17;28.65;43.60
65199;HTU21D;52170;45.018;37.910;2023-05-16T12:13:43;28.61;43.90
65199;HTU21D;52170;45.018;37.910;2023-05-16T12:16:10;28.47;43.80
65199;HTU21D;52170;45.018;37.910;2023-05-16T12:18:36;28.45;44.12
65199;HTU21D;52170;45.018;37.910;2023-05-16T12:21:03;28.53;43.85
65199;HTU21D;52170;45.018;37.910;2023-05-16T12:23:31;28.59;43.81
65199;HTU21D;52170;45.018;37.910;2023-05-16T12:25:57;28.67;43.63
65199;HTU21D;52170;45.018;37.910;2023-05-16T12:28:29;28.74;43.88
65199;HTU21D;52170;45.018;37.910;2023-05-16T12:30:56;28.76;43.57
65199;HTU21D;52170;45.018;37.910;2023-05-16T12:33:21;28.73;44.38
65199;HTU21D;52170;45.018;37.910;2023-05-16T12:35:47;28.58;44.23
65199;HTU21D;52170;45.018;37.910;2023-05-16T12:38:14;28.30;45.03
65199;HTU21D;52170;45.018;37.910;2023-05-16T12:40:41;28.00;45.54
65199;HTU21D;52170;45.018;37.910;2023-05-16T12:43:20;27.87;45.00
65199;HTU21D;52170;45.018;37.910;2023-05-16T12:45:49;27.90;44.85
65199;HTU21D;52170;45.018;37.910;2023-05-16T12:48:15;28.09;44.97
65199;HTU21D;52170;45.018;37.910;2023-05-16T12:50:41;28.23;44.08
65199;HTU21D;52170;45.018;37.910;2023-05-16T12:53:11;28.26;44.32
65199;HTU21D;52170;45.018;37.910;2023-05-16T12:55:37;28.33;43.65
65199;HTU21D;52170;45.018;37.910;2023-05-16T12:58:03;28.39;42.32
65199;HTU21D;52170;45.018;37.910;2023-05-16T13:00:28;28.39;43.42
65199;HTU21D;52170;45.018;37.910;2023-05-16T13:02:56;28.42;43.03
65199;HTU21D;52170;45.018;37.910;2023-05-16T13:05:21;28.46;43.52
65199;HTU21D;52170;45.018;37.910;2023-05-16T13:07:48;28.55;43.62
65199;HTU21D;52170;45.018;37.910;2023-05-16T13:10:16;28.67;43.60
65199;HTU21D;52170;45.018;37.910;2023-05-16T13:12:42;28.68;43.81
65199;HTU21D;52170;45.018;37.910;2023-05-16T13:15:09;28.39;43.68
65199;HTU21D;52170;45.018;37.910;2023-05-16T13:17:36;28.01;44.35
65199;HTU21D;52170;45.018;37.910;2023-05-16T13:20:02;27.57;44.74
65199;HTU21D;52170;45.018;37.910;2023-05-16T13:22:32;27.14;44.80
65199;HTU21D;52170;45.018;37.910;2023-05-16T13:24:58;26.78;45.59
65199;HTU21D;52170;45.018;37.910;2023-05-16T13:27:26;26.50;45.84
65199;HTU21D;52170;45.018;37.910;2023-05-16T13:29:51;26.26;46.22
65199;HTU21D;52170;45.018;37.910;2023-05-16T13:32:17;26.06;46.67
65199;HTU21D;52170;45.018;37.910;2023-05-16T13:34:43;25.87;46.86
65199;HTU21D;52170;45.018;37.910;2023-05-16T13:37:09;25.72;47.09
65199;HTU21D;52170;45.018;37.910;2023-05-16T13:39:34;25.61;47.22
65199;HTU21D;52170;45.018;37.910;2023-05-16T13:42:00;25.51;47.32
65199;HTU21D;52170;45.018;37.910;2023-05-16T13:44:28;25.51;47.32
65199;HTU21D;52170;45.018;37.910;2023-05-16T13:46:54;25.61;47.12
65199;HTU21D;52170;45.018;37.910;2023-05-16T13:49:21;25.59;47.09
65199;HTU21D;52170;45.018;37.910;2023-05-16T13:51:46;25.46;46.70
65199;HTU21D;52170;45.018;37.910;2023-05-16T13:54:12;25.32;47.01
65199;HTU21D;52170;45.018;37.910;2023-05-16T13:56:38;25.25;47.01
65199;HTU21D;52170;45.018;37.910;2023-05-16T13:59:03;25.17;47.15
65199;HTU21D;52170;45.018;37.910;2023-05-16T14:01:29;25.04;47.28
65199;HTU21D;52170;45.018;37.910;2023-05-16T14:03:55;24.92;47.58
65199;HTU21D;52170;45.018;37.910;2023-05-16T14:06:21;24.98;47.57
65199;HTU21D;52170;45.018;37.910;2023-05-16T14:08:47;25.16;47.31
65199;HTU21D;52170;45.018;37.910;2023-05-16T14:11:12;25.31;46.85
65199;HTU21D;52170;45.018;37.910;2023-05-16T14:13:38;25.43;46.91
65199;HTU21D;52170;45.018;37.910;2023-05-16T14:16:06;25.51;46.80
65199;HTU21D;52170;45.018;37.910;2023-05-16T14:18:32;25.63;46.53
65199;HTU21D;52170;45.018;37.910;2023-05-16T14:20:58;25.69;46.64
65199;HTU21D;52170;45.018;37.910;2023-05-16T14:23:24;25.75;46.54
65199;HTU21D;52170;45.018;37.910;2023-05-16T14:25:49;25.77;46.41
65199;HTU21D;52170;45.018;37.910;2023-05-16T14:28:15;25.72;45.87
65199;HTU21D;52170;45.018;37.910;2023-05-16T14:30:41;25.65;46.06
65199;HTU21D;52170;45.018;37.910;2023-05-16T14:33:07;25.52;46.60
65199;HTU21D;52170;45.018;37.910;2023-05-16T14:35:32;25.45;46.72
65199;HTU21D;52170;45.018;37.910;2023-05-16T14:37:58;25.32;46.30
65199;HTU21D;52170;45.018;37.910;2023-05-16T14:40:24;25.22;46.39
65199;HTU21D;52170;45.018;37.910;2023-05-16T14:42:49;25.15;46.54
65199;HTU21D;52170;45.018;37.910;2023-05-16T14:45:15;25.02;46.49
65199;HTU21D;52170;45.018;37.910;2023-05-16T14:47:41;24.95;46.85
65199;HTU21D;52170;45.018;37.910;2023-05-16T14:50:08;24.86;46.82
65199;HTU21D;52170;45.018;37.910;2023-05-16T14:52:36;24.78;46.73
65199;HTU21D;52170;45.018;37.910;2023-05-16T14:55:03;24.66;47.10
65199;HTU21D;52170;45.018;37.910;2023-05-16T14:57:28;24.60;46.89
65199;HTU21D;52170;45.018;37.910;2023-05-16T14:59:54;24.51;47.16
65199;HTU21D;52170;45.018;37.910;2023-05-16T15:02:20;24.46;47.44
65199;HTU21D;52170;45.018;37.910;2023-05-16T15:04:45;24.38;47.42
65199;HTU21D;52170;45.018;37.910;2023-05-16T15:07:11;24.28;47.61
65199;HTU21D;52170;45.018;37.910;2023-05-16T15:09:37;24.20;47.67
65199;HTU21D;52170;45.018;37.910;2023-05-16T15:12:03;24.11;47.75
65199;HTU21D;52170;45.018;37.910;2023-05-16T15:14:29;24.01;47.81
65199;HTU21D;52170;45.018;37.910;2023-05-16T15:16:55;23.94;47.98
65199;HTU21D;52170;45.018;37.910;2023-05-16T15:19:20;23.88;48.18
65199;HTU21D;52170;45.018;37.910;2023-05-16T15:21:46;23.81;48.27
65199;HTU21D;52170;45.018;37.910;2023-05-16T15:24:12;23.73;48.45
65199;HTU21D;52170;45.018;37.910;2023-05-16T15:26:38;23.69;48.50
65199;HTU21D;52170;45.018;37.910;2023-05-16T15:29:04;23.62;48.65
65199;HTU21D;52170;45.018;37.910;2023-05-16T15:31:29;23.53;48.75